Wednesday, April 25, 2018, 12:21 PM GMT
Back to Local

CWPE, Point Lepreau, N. B.

Location: , , Canada Lat: 45.067
Local Time: 12:21 PM GMT (12:21 GMT) Lon: -66.467
Time Zone: GMT Elev: 3 ft

Show me the last for .
Show Coded

Time T Td Feel RH Dir Speed Gust Alt SLP Vis Weather Sky Remarks
2018-04-25 12:00 45 41 42 84 210° 6 - - 30.22 0 None
2018-04-25 11:00 43 40 39 87 200° 6 - - 30.22 0 None
2018-04-25 10:00 42 39 39 91 230° 5 - - 30.21 0 None
2018-04-25 09:00 40 38 36 93 140° 7 - - 30.21 0 None
2018-04-25 08:00 41 38 - 87 220° 2 - - 30.22 0 None
2018-04-25 07:00 42 37 37 82 200° 8 - - 30.22 0 None
2018-04-25 06:00 40 36 - 84 180° 2 - - 30.23 0 None
2018-04-25 05:00 43 37 40 79 220° 5 - - 30.24 0 None
2018-04-25 04:00 40 36 - 82 170° 2 - - 30.25 0 None
2018-04-25 03:00 43 37 - 79 230° 2 - - 30.25 0 None
2018-04-25 02:00 43 38 39 81 230° 7 - - 30.26 0 None
2018-04-25 01:00 42 38 37 86 220° 8 - - 30.27 0 None
2018-04-25 00:00 45 38 36 76 220° 14 26 - 30.25 0 None
2018-04-24 23:00 44 38 36 77 210° 13 23 - 30.24 0 None
2018-04-24 22:00 48 38 40 70 200° 14 23 - 30.25 0 None
2018-04-24 21:00 49 39 42 67 210° 12 21 - 30.24 0 None
2018-04-24 20:00 47 42 42 81 180° 12 - - 30.25 0 None
2018-04-24 19:00 49 43 44 78 180° 14 - - 30.25 0 None
2018-04-24 18:00 50 45 - 81 180° 12 18 - 30.27 0 None
2018-04-24 17:00 52 43 - 69 190° 7 - - 30.29 0 None
2018-04-24 16:00 47 39 43 73 230° 8 - - 30.31 0 None
2018-04-24 15:00 50 41 46 71 200° 8 - - 30.32 0 None
2018-04-24 14:00 48 38 44 69 210° 8 - - 30.34 0 None
2018-04-24 13:00 47 40 43 78 210° 7 - - 30.34 0 None

Support USWX by starting your Amazon purchase here.